Terminal Aerodrome Forecast
Issued by NWS

Home | Current Version | Previous Version | Text Only | Print | Product List | Glossary On
Versions: 1 2 3 4 5 6 7 8 9 10 11 12 13 14 15 16 17 18 19 20 21 22 23 24 25 26 27 28
268
FTUS46 KMTR 270303 AAA
TAFSFO
TAF AMD
KSFO 270303Z 2703/2806 27015KT P6SM FEW010
     FM270700 25007KT P6SM SCT012
      TEMPO 2707/2710 BKN012
     FM271000 24005KT P6SM BKN011
     FM271500 VRB03KT P6SM SCT015
     FM271900 28016G20KT P6SM FEW020
     FM280400 28010KT P6SM SCT012=

USA.gov is the U.S. government's official web portal to all federal, state and local government web resources and services.